CMB831 Details

Departure: Norfolk Naval Station (Chambers Field) (KNGU)
Arrival: Keflavík International Airport (BIKF) at N/A
Route: SBY J79 JFK J37 ALB J563 HO PORGY 5950N N6140 EPENI ELDIS ELDIS2M
Notes: USTRANSCOM CONTRACT FLIGHT


Current Weather Information
KNGU 230859Z 30005KT 10SM SCT046 16/14 A2994 RMK AO2 SLP138 T01560144 53019
BIKF 230900Z 03020G31KT 9999 FEW036 M02/M09 Q1017